createdAt,value
2018-02-15T00:03:08.220Z,88.9
2018-02-15T00:08:08.265Z,89.6
2018-02-15T00:13:08.292Z,90.3
2018-02-15T00:18:08.213Z,89.1
2018-02-15T00:23:08.254Z,88.9
2018-02-15T00:28:08.281Z,89.7
2018-02-15T00:33:08.308Z,89.6
2018-02-15T00:38:08.161Z,89
2018-02-15T00:43:08.396Z,89.2
2018-02-15T00:48:08.375Z,89
2018-02-15T00:53:08.409Z,89.3
2018-02-15T00:58:08.387Z,89.1
2018-02-15T01:03:08.345Z,88.7
2018-02-15T01:08:08.328Z,89.5
2018-02-15T01:13:08.188Z,89.4
2018-02-15T01:18:08.191Z,91.2
2018-02-15T01:23:08.348Z,89.5
2018-02-15T01:28:08.125Z,89.6
2018-02-15T01:33:08.290Z,89.1
2018-02-15T01:38:08.362Z,88.8
2018-02-15T01:43:08.392Z,89.1
2018-02-15T01:48:08.428Z,88.1
2018-02-15T01:53:08.197Z,90.4
2018-02-15T01:58:08.381Z,89.4
2018-02-15T02:03:08.335Z,88.5
2018-02-15T02:08:08.143Z,90.2
2018-02-15T02:13:08.374Z,88.7
2018-02-15T02:18:08.228Z,88.9
2018-02-15T02:23:08.455Z,88.2
2018-02-15T02:28:08.374Z,89
2018-02-15T02:33:08.410Z,88.1
2018-02-15T02:38:08.451Z,88.2
2018-02-15T02:43:08.385Z,88.8
2018-02-15T02:48:08.404Z,88.7
2018-02-15T02:53:08.452Z,88.5
2018-02-15T02:58:08.473Z,88.1
2018-02-15T03:03:08.387Z,88.1
2018-02-15T03:08:08.261Z,88
2018-02-15T03:13:08.451Z,90.5
2018-02-15T03:18:08.225Z,89.2
2018-02-15T03:23:08.447Z,89.7
2018-02-15T03:28:08.483Z,91.1
2018-02-15T03:33:08.258Z,90.2
2018-02-15T03:38:11.188Z,89.9
2018-02-15T03:43:16.440Z,91.2
2018-02-15T03:48:11.133Z,89.2
2018-02-15T03:53:11.345Z,89
2018-02-15T03:58:11.436Z,89.5
2018-02-15T04:03:12.495Z,89.2
2018-02-15T04:08:11.584Z,88
2018-02-15T04:13:11.520Z,88.1
2018-02-15T04:18:11.521Z,87.9
2018-02-15T04:23:11.576Z,88.2
2018-02-15T04:28:11.424Z,88
2018-02-15T04:33:11.513Z,88.2
2018-02-15T04:38:11.590Z,88.2
2018-02-15T04:43:11.630Z,88.2
2018-02-15T04:48:11.416Z,88
2018-02-15T04:53:11.378Z,87.2
2018-02-15T04:58:11.409Z,88.1
2018-02-15T05:03:11.417Z,87.8
2018-02-15T05:08:11.388Z,87.2
2018-02-15T05:13:11.478Z,87.4
2018-02-15T05:18:11.553Z,87.9
2018-02-15T05:23:11.698Z,87.5
2018-02-15T05:28:11.733Z,87.4
2018-02-15T05:33:11.518Z,87.5
2018-02-15T05:38:11.541Z,87.8
2018-02-15T05:43:11.534Z,87.4
2018-02-15T05:48:11.529Z,88
2018-02-15T05:53:11.669Z,88.1
2018-02-15T05:58:11.654Z,88.4
2018-02-15T06:03:11.761Z,88.3
2018-02-15T06:08:11.540Z,87.9
2018-02-15T06:13:11.693Z,88.4
2018-02-15T06:18:11.564Z,88.1
2018-02-15T06:23:11.807Z,87.8
2018-02-15T06:28:11.990Z,88.6
2018-02-15T06:33:11.729Z,87.2
2018-02-15T06:38:11.684Z,86.8
2018-02-15T06:43:11.707Z,87.6
2018-02-15T06:48:11.576Z,88.2
2018-02-15T06:53:11.805Z,88.3
2018-02-15T06:58:11.733Z,88.1
2018-02-15T07:03:11.738Z,89.1
2018-02-15T07:08:11.763Z,89.4
2018-02-15T07:13:11.701Z,89.5
2018-02-15T07:18:11.977Z,89
2018-02-15T07:23:11.877Z,87.2
2018-02-15T07:28:11.752Z,87.4
2018-02-15T07:33:11.968Z,86.4
2018-02-15T07:38:11.984Z,86.2
2018-02-15T07:43:11.765Z,87
2018-02-15T07:48:11.962Z,85.8
2018-02-15T07:53:11.994Z,87.5
2018-02-15T07:58:12.044Z,87.8
2018-02-15T08:03:11.938Z,87.3
2018-02-15T08:08:11.989Z,86.4
2018-02-15T08:13:11.777Z,88.9
2018-02-15T08:18:11.935Z,87.7
2018-02-15T08:23:11.907Z,87.6
2018-02-15T08:28:14.846Z,87.2
2018-02-15T08:33:19.677Z,87.6
2018-02-15T08:38:14.718Z,87.8
2018-02-15T08:43:14.781Z,86.9
2018-02-15T08:48:14.819Z,86.9
2018-02-15T08:53:14.743Z,86.8
2018-02-15T08:58:14.597Z,86.2
2018-02-15T09:03:14.778Z,86.6
2018-02-15T09:08:14.732Z,86.7
2018-02-15T09:13:14.795Z,86.5
2018-02-15T09:18:14.597Z,84.8
2018-02-15T09:23:14.774Z,85.1
2018-02-15T09:28:14.971Z,85.3
2018-02-15T09:33:15.057Z,85.3
2018-02-15T09:38:15.045Z,86
2018-02-15T09:43:14.835Z,85.3
2018-02-15T09:48:15.032Z,84.9
2018-02-15T09:53:15.042Z,84.6
2018-02-15T09:58:15.077Z,83.9
2018-02-15T10:03:15.040Z,83.1
2018-02-15T10:08:15.041Z,82.1
2018-02-15T10:13:14.982Z,80.6
2018-02-15T10:18:15.008Z,80.5
2018-02-15T10:23:15.047Z,79.7
2018-02-15T10:28:15.055Z,77.7
2018-02-15T10:33:15.031Z,79.2
2018-02-15T10:38:15.150Z,77.5
2018-02-15T10:43:15.174Z,75.7
2018-02-15T10:48:15.218Z,76.7
2018-02-15T10:53:15.030Z,76
2018-02-15T10:58:15.199Z,76.3
2018-02-15T11:03:15.167Z,73.5
2018-02-15T11:08:15.007Z,72.7
2018-02-15T11:13:15.044Z,73.4
2018-02-15T11:18:15.227Z,72.7
2018-02-15T11:23:15.359Z,72.4
2018-02-15T11:28:15.384Z,72.4
2018-02-15T11:33:15.308Z,73.2
2018-02-15T11:38:15.350Z,72.2
2018-02-15T11:43:15.378Z,72.2
2018-02-15T11:48:15.181Z,72.6
2018-02-15T11:53:15.337Z,73.1
2018-02-15T11:58:15.377Z,72.3
2018-02-15T12:03:15.433Z,71.2
2018-02-15T12:08:15.460Z,70.2
2018-02-15T12:13:15.394Z,70.7
2018-02-15T12:18:15.194Z,69
2018-02-15T12:23:15.350Z,67.5
2018-02-15T12:28:15.207Z,68.7
2018-02-15T12:33:15.411Z,67.6
2018-02-15T12:38:15.330Z,66.8
2018-02-15T12:43:15.401Z,66.8
2018-02-15T12:48:15.229Z,66.7
2018-02-15T12:53:15.234Z,67.5
2018-02-15T12:58:15.409Z,66.6
2018-02-15T13:03:15.426Z,67.2
2018-02-15T13:08:15.233Z,67.5
2018-02-15T13:13:16.912Z,65.9
2018-02-15T13:18:22.023Z,66.5
2018-02-15T13:23:27.329Z,65.5
2018-02-15T13:28:22.247Z,65.1
2018-02-15T13:33:22.136Z,66.3
2018-02-15T13:38:22.208Z,66
2018-02-15T13:43:22.158Z,66.5
2018-02-15T13:48:22.174Z,66
2018-02-15T13:53:22.013Z,64.8
2018-02-15T13:58:22.242Z,65.4
2018-02-15T14:03:22.159Z,65.6
2018-02-15T14:08:22.536Z,66.8
2018-02-15T14:13:22.459Z,65.6
2018-02-15T14:18:22.482Z,67.3
2018-02-15T14:23:22.496Z,66
2018-02-15T14:28:22.427Z,66.7
2018-02-15T14:33:22.506Z,67.5
2018-02-15T14:38:22.737Z,67.6
2018-02-15T14:43:22.784Z,67.7
2018-02-15T14:48:22.573Z,67.4
2018-02-15T14:53:22.565Z,67.8
2018-02-15T14:58:22.941Z,68.7
2018-02-15T15:03:22.834Z,68
2018-02-15T15:08:22.831Z,68.7
2018-02-15T15:13:22.849Z,68.9
2018-02-15T15:18:22.779Z,68.9
2018-02-15T15:23:22.841Z,68.3
2018-02-15T15:28:22.746Z,68.5
2018-02-15T15:33:22.775Z,68.4
2018-02-15T15:38:22.833Z,69
2018-02-15T15:43:22.732Z,69.3
2018-02-15T15:48:22.855Z,69.8
2018-02-15T15:53:22.819Z,69.4
2018-02-15T15:58:22.734Z,69.5
2018-02-15T16:03:22.763Z,69.8
2018-02-15T16:08:22.867Z,70.1
2018-02-15T16:13:22.612Z,71.1
2018-02-15T16:18:22.655Z,71.3
2018-02-15T16:23:22.610Z,71
2018-02-15T16:28:22.883Z,71.5
2018-02-15T16:33:22.598Z,71.9
2018-02-15T16:38:22.625Z,72
2018-02-15T16:43:22.631Z,74.3
2018-02-15T16:48:24.085Z,74.5
2018-02-15T16:53:22.628Z,74.7
2018-02-15T16:58:22.641Z,74.8
2018-02-15T17:03:22.641Z,75.1
2018-02-15T17:08:26.253Z,75.5
2018-02-15T17:13:26.105Z,75.5
2018-02-15T17:18:26.160Z,75.8
2018-02-15T17:23:26.211Z,76.8
2018-02-15T17:28:26.268Z,76.4
2018-02-15T17:33:26.180Z,78.1
2018-02-15T17:38:26.201Z,78.5
2018-02-15T17:43:26.110Z,78.5
2018-02-15T17:48:26.147Z,78.8
2018-02-15T17:53:26.072Z,78.7
2018-02-15T17:58:26.213Z,79.4
2018-02-15T18:03:25.967Z,79.2
2018-02-15T18:08:28.359Z,79.7
2018-02-15T18:13:33.560Z,80.9
2018-02-15T18:18:28.587Z,80.7
2018-02-15T18:23:28.549Z,80.5
2018-02-15T18:28:28.612Z,81.3
2018-02-15T18:33:28.490Z,81.7
2018-02-15T18:38:28.533Z,82.1
2018-02-15T18:43:28.383Z,83.3
2018-02-15T18:48:28.513Z,84.7
2018-02-15T18:53:28.487Z,85.3
2018-02-15T18:58:28.575Z,86.5
2018-02-15T19:03:28.723Z,86.7
2018-02-15T19:08:28.488Z,88.4
2018-02-15T19:13:28.685Z,88.5
2018-02-15T19:18:28.500Z,88.3
2018-02-15T19:23:28.623Z,88.9
2018-02-15T19:28:28.656Z,89.5
2018-02-15T19:33:28.672Z,90.2
2018-02-15T19:38:28.620Z,89.7
2018-02-15T19:43:28.652Z,90.6
2018-02-15T19:48:28.523Z,90.8
2018-02-15T19:53:28.599Z,92.5
2018-02-15T19:58:28.524Z,92.1
2018-02-15T20:03:28.523Z,91.3
2018-02-15T20:08:28.510Z,91.5
2018-02-15T20:13:28.661Z,91.8
2018-02-15T20:18:28.745Z,91.5
2018-02-15T20:23:28.710Z,92.2
2018-02-15T20:28:28.507Z,92.7
2018-02-15T20:33:28.469Z,92.9
2018-02-15T20:38:28.488Z,92.2
2018-02-15T20:43:28.762Z,92.9
2018-02-15T20:48:28.658Z,93.2
2018-02-15T20:53:28.712Z,93.8
2018-02-15T20:58:28.619Z,93.8
2018-02-15T21:03:28.523Z,92.4
2018-02-15T21:08:28.522Z,92.5
2018-02-15T21:13:28.605Z,92.6
2018-02-15T21:18:29.544Z,94.8
2018-02-15T21:23:28.531Z,94.8
2018-02-15T21:28:28.522Z,95.4
2018-02-15T21:33:29.721Z,94.9
2018-02-15T21:38:28.526Z,96.3
2018-02-15T21:43:28.526Z,96.4
2018-02-15T21:48:28.533Z,96.6
2018-02-15T21:53:28.534Z,96.5
2018-02-15T21:58:28.982Z,96.5
2018-02-15T22:03:28.543Z,96.1
2018-02-15T22:08:28.547Z,95.4
2018-02-15T22:13:28.731Z,95.8
2018-02-15T22:18:28.540Z,96.8
2018-02-15T22:23:28.683Z,96.8
2018-02-15T22:28:28.706Z,96.3
2018-02-15T22:33:29.798Z,96.3
2018-02-15T22:38:28.682Z,96.6
2018-02-15T22:43:28.729Z,97.3
2018-02-15T22:48:28.560Z,97
2018-02-15T22:53:30.394Z,97
2018-02-15T22:58:35.464Z,97
2018-02-15T23:03:30.419Z,97.8
2018-02-15T23:08:30.407Z,97.7
2018-02-15T23:13:30.405Z,97.3
2018-02-15T23:18:30.598Z,97.6
2018-02-15T23:23:30.648Z,96.7
2018-02-15T23:28:30.414Z,97.4
2018-02-15T23:33:30.423Z,97.3
2018-02-15T23:38:30.370Z,98
2018-02-15T23:43:30.552Z,97
2018-02-15T23:48:30.422Z,96.1
2018-02-15T23:53:30.428Z,96.8
2018-02-15T23:58:30.558Z,97.7
